sensor_id;sensor_type;location;lat;lon;timestamp;P1;durP1;ratioP1;P2;durP2;ratioP2
19575;SDS011;41589;51.196;7.074;2023-07-28T00:00:42;1.53;;;1.43;;
19575;SDS011;41589;51.196;7.074;2023-07-28T00:05:43;1.70;;;1.60;;
19575;SDS011;41589;51.196;7.074;2023-07-28T00:10:43;1.70;;;1.60;;
19575;SDS011;41589;51.196;7.074;2023-07-28T00:15:44;1.93;;;1.70;;
19575;SDS011;41589;51.196;7.074;2023-07-28T00:20:44;1.90;;;1.80;;
19575;SDS011;41589;51.196;7.074;2023-07-28T00:25:44;1.57;;;1.47;;
19575;SDS011;41589;51.196;7.074;2023-07-28T00:30:48;1.60;;;1.50;;
19575;SDS011;41589;51.196;7.074;2023-07-28T00:35:49;1.37;;;1.37;;
19575;SDS011;41589;51.196;7.074;2023-07-28T00:40:49;1.40;;;1.33;;
19575;SDS011;41589;51.196;7.074;2023-07-28T00:45:50;1.37;;;1.30;;
19575;SDS011;41589;51.196;7.074;2023-07-28T00:50:51;1.50;;;1.40;;
19575;SDS011;41589;51.196;7.074;2023-07-28T00:55:52;1.40;;;1.33;;
19575;SDS011;41589;51.196;7.074;2023-07-28T01:00:53;1.70;;;1.60;;
19575;SDS011;41589;51.196;7.074;2023-07-28T01:11:18;1.70;;;1.60;;
19575;SDS011;41589;51.196;7.074;2023-07-28T01:16:19;1.63;;;1.50;;
19575;SDS011;41589;51.196;7.074;2023-07-28T01:21:24;1.93;;;1.70;;
19575;SDS011;41589;51.196;7.074;2023-07-28T01:31:34;1.83;;;1.73;;
19575;SDS011;41589;51.196;7.074;2023-07-28T01:36:35;1.63;;;1.53;;
19575;SDS011;41589;51.196;7.074;2023-07-28T01:41:35;1.80;;;1.70;;
19575;SDS011;41589;51.196;7.074;2023-07-28T01:46:36;2.33;;;2.13;;
19575;SDS011;41589;51.196;7.074;2023-07-28T01:51:37;2.37;;;2.17;;
19575;SDS011;41589;51.196;7.074;2023-07-28T01:56:37;2.00;;;1.90;;
19575;SDS011;41589;51.196;7.074;2023-07-28T02:01:37;2.17;;;2.07;;
19575;SDS011;41589;51.196;7.074;2023-07-28T02:06:38;2.20;;;2.10;;
19575;SDS011;41589;51.196;7.074;2023-07-28T02:11:38;2.23;;;2.13;;
19575;SDS011;41589;51.196;7.074;2023-07-28T02:16:39;2.20;;;2.10;;
19575;SDS011;41589;51.196;7.074;2023-07-28T02:21:39;2.03;;;1.93;;
19575;SDS011;41589;51.196;7.074;2023-07-28T02:26:39;2.10;;;2.00;;
19575;SDS011;41589;51.196;7.074;2023-07-28T02:31:40;1.70;;;1.60;;
19575;SDS011;41589;51.196;7.074;2023-07-28T02:36:40;1.73;;;1.63;;
19575;SDS011;41589;51.196;7.074;2023-07-28T02:41:41;1.60;;;1.50;;
19575;SDS011;41589;51.196;7.074;2023-07-28T02:46:42;1.87;;;1.40;;
19575;SDS011;41589;51.196;7.074;2023-07-28T02:51:42;1.70;;;1.60;;
19575;SDS011;41589;51.196;7.074;2023-07-28T02:56:43;1.80;;;1.70;;
19575;SDS011;41589;51.196;7.074;2023-07-28T03:01:45;1.50;;;1.40;;
19575;SDS011;41589;51.196;7.074;2023-07-28T03:06:46;2.23;;;1.60;;
19575;SDS011;41589;51.196;7.074;2023-07-28T03:11:47;1.43;;;1.40;;
19575;SDS011;41589;51.196;7.074;2023-07-28T03:16:47;1.70;;;1.60;;
19575;SDS011;41589;51.196;7.074;2023-07-28T03:21:48;1.90;;;1.67;;
19575;SDS011;41589;51.196;7.074;2023-07-28T03:26:48;1.40;;;1.40;;
19575;SDS011;41589;51.196;7.074;2023-07-28T03:31:48;1.67;;;1.57;;
19575;SDS011;41589;51.196;7.074;2023-07-28T03:36:50;1.77;;;1.67;;
19575;SDS011;41589;51.196;7.074;2023-07-28T03:41:51;2.67;;;2.00;;
19575;SDS011;41589;51.196;7.074;2023-07-28T03:46:52;1.30;;;1.30;;
19575;SDS011;41589;51.196;7.074;2023-07-28T03:51:52;1.30;;;1.20;;
19575;SDS011;41589;51.196;7.074;2023-07-28T03:56:53;2.30;;;1.60;;
19575;SDS011;41589;51.196;7.074;2023-07-28T04:01:54;1.50;;;1.40;;
19575;SDS011;41589;51.196;7.074;2023-07-28T04:06:54;1.60;;;1.30;;
19575;SDS011;41589;51.196;7.074;2023-07-28T04:11:55;1.77;;;1.23;;
19575;SDS011;41589;51.196;7.074;2023-07-28T04:16:55;1.10;;;1.10;;
19575;SDS011;41589;51.196;7.074;2023-07-28T04:21:59;1.50;;;1.40;;
19575;SDS011;41589;51.196;7.074;2023-07-28T04:27:01;1.00;;;1.00;;
19575;SDS011;41589;51.196;7.074;2023-07-28T04:32:02;1.47;;;1.20;;
19575;SDS011;41589;51.196;7.074;2023-07-28T04:37:06;1.20;;;1.10;;
19575;SDS011;41589;51.196;7.074;2023-07-28T04:42:36;1.17;;;1.10;;
19575;SDS011;41589;51.196;7.074;2023-07-28T04:47:37;1.00;;;1.00;;
19575;SDS011;41589;51.196;7.074;2023-07-28T04:52:42;1.20;;;1.10;;
19575;SDS011;41589;51.196;7.074;2023-07-28T04:58:00;1.03;;;1.00;;
19575;SDS011;41589;51.196;7.074;2023-07-28T05:03:11;0.93;;;0.80;;
19575;SDS011;41589;51.196;7.074;2023-07-28T05:08:19;1.07;;;1.00;;
19575;SDS011;41589;51.196;7.074;2023-07-28T05:13:19;4.53;;;1.67;;
19575;SDS011;41589;51.196;7.074;2023-07-28T05:18:30;1.37;;;1.27;;
19575;SDS011;41589;51.196;7.074;2023-07-28T05:23:54;2.50;;;1.50;;
19575;SDS011;41589;51.196;7.074;2023-07-28T05:28:54;4.43;;;1.60;;
19575;SDS011;41589;51.196;7.074;2023-07-28T05:33:55;3.47;;;1.60;;
19575;SDS011;41589;51.196;7.074;2023-07-28T05:38:57;2.27;;;1.43;;
19575;SDS011;41589;51.196;7.074;2023-07-28T05:44:02;2.00;;;1.70;;
19575;SDS011;41589;51.196;7.074;2023-07-28T05:49:03;5.40;;;2.30;;
19575;SDS011;41589;51.196;7.074;2023-07-28T05:54:03;11.50;;;3.37;;
19575;SDS011;41589;51.196;7.074;2023-07-28T05:59:04;5.40;;;2.30;;
19575;SDS011;41589;51.196;7.074;2023-07-28T06:04:04;23.43;;;4.20;;
19575;SDS011;41589;51.196;7.074;2023-07-28T06:09:09;36.47;;;6.73;;
19575;SDS011;41589;51.196;7.074;2023-07-28T06:14:11;32.83;;;6.97;;
19575;SDS011;41589;51.196;7.074;2023-07-28T06:19:12;11.33;;;3.53;;
19575;SDS011;41589;51.196;7.074;2023-07-28T06:24:13;2.27;;;2.00;;
19575;SDS011;41589;51.196;7.074;2023-07-28T06:29:14;9.93;;;3.97;;
19575;SDS011;41589;51.196;7.074;2023-07-28T06:34:14;3.53;;;3.23;;
19575;SDS011;41589;51.196;7.074;2023-07-28T06:39:15;27.60;;;7.23;;
19575;SDS011;41589;51.196;7.074;2023-07-28T06:44:15;2.93;;;2.73;;
19575;SDS011;41589;51.196;7.074;2023-07-28T06:49:16;7.40;;;3.77;;
19575;SDS011;41589;51.196;7.074;2023-07-28T06:54:16;5.73;;;3.53;;
19575;SDS011;41589;51.196;7.074;2023-07-28T06:59:17;28.07;;;7.70;;
19575;SDS011;41589;51.196;7.074;2023-07-28T07:04:18;6.40;;;5.03;;
19575;SDS011;41589;51.196;7.074;2023-07-28T07:09:19;3.73;;;2.60;;
19575;SDS011;41589;51.196;7.074;2023-07-28T07:14:20;16.50;;;4.23;;
19575;SDS011;41589;51.196;7.074;2023-07-28T07:19:20;2.90;;;2.33;;
19575;SDS011;41589;51.196;7.074;2023-07-28T07:24:21;5.50;;;2.43;;
19575;SDS011;41589;51.196;7.074;2023-07-28T07:29:22;1.80;;;1.70;;
19575;SDS011;41589;51.196;7.074;2023-07-28T07:34:22;1.20;;;1.10;;
19575;SDS011;41589;51.196;7.074;2023-07-28T07:39:23;1.37;;;1.30;;
19575;SDS011;41589;51.196;7.074;2023-07-28T07:44:23;1.50;;;1.40;;
19575;SDS011;41589;51.196;7.074;2023-07-28T07:49:24;2.40;;;2.20;;
19575;SDS011;41589;51.196;7.074;2023-07-28T07:54:24;2.63;;;2.43;;
19575;SDS011;41589;51.196;7.074;2023-07-28T07:59:25;3.57;;;2.83;;
19575;SDS011;41589;51.196;7.074;2023-07-28T08:04:31;3.70;;;3.10;;
19575;SDS011;41589;51.196;7.074;2023-07-28T08:09:31;3.10;;;2.80;;
19575;SDS011;41589;51.196;7.074;2023-07-28T08:14:53;3.60;;;2.80;;
19575;SDS011;41589;51.196;7.074;2023-07-28T08:20:02;2.90;;;2.70;;
19575;SDS011;41589;51.196;7.074;2023-07-28T08:25:06;2.90;;;2.70;;
19575;SDS011;41589;51.196;7.074;2023-07-28T08:30:08;2.97;;;2.77;;
19575;SDS011;41589;51.196;7.074;2023-07-28T08:35:09;4.23;;;2.73;;
19575;SDS011;41589;51.196;7.074;2023-07-28T08:40:19;3.27;;;2.97;;
19575;SDS011;41589;51.196;7.074;2023-07-28T08:45:29;3.30;;;3.00;;
19575;SDS011;41589;51.196;7.074;2023-07-28T08:50:29;3.70;;;3.40;;
19575;SDS011;41589;51.196;7.074;2023-07-28T08:55:30;3.60;;;3.30;;
19575;SDS011;41589;51.196;7.074;2023-07-28T09:00:30;6.33;;;3.50;;
19575;SDS011;41589;51.196;7.074;2023-07-28T09:05:32;3.00;;;2.80;;
19575;SDS011;41589;51.196;7.074;2023-07-28T09:10:46;3.20;;;2.90;;
19575;SDS011;41589;51.196;7.074;2023-07-28T09:15:51;2.73;;;2.57;;
19575;SDS011;41589;51.196;7.074;2023-07-28T09:20:51;2.77;;;2.57;;
19575;SDS011;41589;51.196;7.074;2023-07-28T09:25:52;2.60;;;2.40;;
19575;SDS011;41589;51.196;7.074;2023-07-28T09:31:05;2.43;;;2.30;;
19575;SDS011;41589;51.196;7.074;2023-07-28T09:36:09;2.37;;;2.27;;
19575;SDS011;41589;51.196;7.074;2023-07-28T09:41:16;2.50;;;2.40;;
19575;SDS011;41589;51.196;7.074;2023-07-28T09:46:17;2.27;;;2.17;;
19575;SDS011;41589;51.196;7.074;2023-07-28T09:51:19;2.20;;;2.10;;
19575;SDS011;41589;51.196;7.074;2023-07-28T09:56:22;2.20;;;2.10;;
19575;SDS011;41589;51.196;7.074;2023-07-28T10:01:27;2.03;;;1.93;;
19575;SDS011;41589;51.196;7.074;2023-07-28T10:06:28;1.97;;;1.87;;
19575;SDS011;41589;51.196;7.074;2023-07-28T10:11:30;1.73;;;1.63;;
19575;SDS011;41589;51.196;7.074;2023-07-28T10:16:38;1.50;;;1.50;;
19575;SDS011;41589;51.196;7.074;2023-07-28T10:21:39;1.70;;;1.60;;
19575;SDS011;41589;51.196;7.074;2023-07-28T10:26:42;1.90;;;1.80;;
19575;SDS011;41589;51.196;7.074;2023-07-28T10:31:52;1.93;;;1.80;;
19575;SDS011;41589;51.196;7.074;2023-07-28T10:36:59;1.57;;;1.47;;
19575;SDS011;41589;51.196;7.074;2023-07-28T10:42:09;1.30;;;1.30;;
19575;SDS011;41589;51.196;7.074;2023-07-28T10:47:10;1.27;;;1.23;;
19575;SDS011;41589;51.196;7.074;2023-07-28T10:52:11;1.03;;;1.03;;
19575;SDS011;41589;51.196;7.074;2023-07-28T10:57:12;1.40;;;1.30;;
19575;SDS011;41589;51.196;7.074;2023-07-28T11:02:15;1.63;;;1.10;;
19575;SDS011;41589;51.196;7.074;2023-07-28T11:07:15;1.13;;;1.10;;
19575;SDS011;41589;51.196;7.074;2023-07-28T11:12:16;1.00;;;1.00;;
19575;SDS011;41589;51.196;7.074;2023-07-28T11:17:17;1.07;;;1.07;;
19575;SDS011;41589;51.196;7.074;2023-07-28T11:22:17;0.93;;;0.93;;
19575;SDS011;41589;51.196;7.074;2023-07-28T11:27:17;0.90;;;0.90;;
19575;SDS011;41589;51.196;7.074;2023-07-28T11:32:18;1.27;;;0.90;;
19575;SDS011;41589;51.196;7.074;2023-07-28T11:37:18;0.80;;;0.80;;
19575;SDS011;41589;51.196;7.074;2023-07-28T11:42:19;0.70;;;0.70;;
19575;SDS011;41589;51.196;7.074;2023-07-28T11:47:19;0.80;;;0.80;;
19575;SDS011;41589;51.196;7.074;2023-07-28T11:52:20;0.70;;;0.70;;
19575;SDS011;41589;51.196;7.074;2023-07-28T11:57:21;0.73;;;0.73;;
19575;SDS011;41589;51.196;7.074;2023-07-28T12:02:26;1.57;;;0.70;;
19575;SDS011;41589;51.196;7.074;2023-07-28T12:07:31;0.80;;;0.80;;
19575;SDS011;41589;51.196;7.074;2023-07-28T12:12:40;0.67;;;0.67;;
19575;SDS011;41589;51.196;7.074;2023-07-28T12:18:01;0.70;;;0.70;;
19575;SDS011;41589;51.196;7.074;2023-07-28T12:23:05;0.60;;;0.60;;
19575;SDS011;41589;51.196;7.074;2023-07-28T12:28:06;0.60;;;0.60;;
19575;SDS011;41589;51.196;7.074;2023-07-28T12:33:07;0.47;;;0.47;;
19575;SDS011;41589;51.196;7.074;2023-07-28T12:38:08;0.60;;;0.60;;
19575;SDS011;41589;51.196;7.074;2023-07-28T12:43:08;0.73;;;0.73;;
19575;SDS011;41589;51.196;7.074;2023-07-28T12:48:09;0.50;;;0.50;;
19575;SDS011;41589;51.196;7.074;2023-07-28T12:53:10;0.43;;;0.43;;
19575;SDS011;41589;51.196;7.074;2023-07-28T12:58:10;0.50;;;0.50;;
19575;SDS011;41589;51.196;7.074;2023-07-28T13:03:10;0.43;;;0.43;;
19575;SDS011;41589;51.196;7.074;2023-07-28T13:08:11;0.40;;;0.40;;
19575;SDS011;41589;51.196;7.074;2023-07-28T13:13:11;0.30;;;0.30;;
19575;SDS011;41589;51.196;7.074;2023-07-28T13:18:11;0.47;;;0.47;;
19575;SDS011;41589;51.196;7.074;2023-07-28T13:23:12;0.30;;;0.30;;
19575;SDS011;41589;51.196;7.074;2023-07-28T13:28:12;0.40;;;0.40;;
19575;SDS011;41589;51.196;7.074;2023-07-28T13:33:13;0.73;;;0.70;;
19575;SDS011;41589;51.196;7.074;2023-07-28T13:38:13;0.50;;;0.50;;
19575;SDS011;41589;51.196;7.074;2023-07-28T13:43:13;0.40;;;0.40;;
19575;SDS011;41589;51.196;7.074;2023-07-28T13:48:14;0.50;;;0.50;;
19575;SDS011;41589;51.196;7.074;2023-07-28T13:53:14;1.23;;;0.60;;
19575;SDS011;41589;51.196;7.074;2023-07-28T13:58:15;0.50;;;0.50;;
19575;SDS011;41589;51.196;7.074;2023-07-28T14:03:15;0.50;;;0.50;;
19575;SDS011;41589;51.196;7.074;2023-07-28T14:08:16;0.40;;;0.40;;
19575;SDS011;41589;51.196;7.074;2023-07-28T14:13:16;0.47;;;0.47;;
19575;SDS011;41589;51.196;7.074;2023-07-28T14:18:17;0.50;;;0.50;;
19575;SDS011;41589;51.196;7.074;2023-07-28T14:23:21;0.50;;;0.50;;
19575;SDS011;41589;51.196;7.074;2023-07-28T14:28:23;0.53;;;0.50;;
19575;SDS011;41589;51.196;7.074;2023-07-28T14:33:23;0.50;;;0.50;;
19575;SDS011;41589;51.196;7.074;2023-07-28T14:38:23;0.70;;;0.70;;
19575;SDS011;41589;51.196;7.074;2023-07-28T14:43:24;0.60;;;0.60;;
19575;SDS011;41589;51.196;7.074;2023-07-28T14:48:25;0.60;;;0.60;;
19575;SDS011;41589;51.196;7.074;2023-07-28T14:58:32;0.70;;;0.70;;
19575;SDS011;41589;51.196;7.074;2023-07-28T15:03:33;0.77;;;0.77;;
19575;SDS011;41589;51.196;7.074;2023-07-28T15:08:34;0.90;;;0.90;;
19575;SDS011;41589;51.196;7.074;2023-07-28T15:13:35;0.60;;;0.60;;
19575;SDS011;41589;51.196;7.074;2023-07-28T15:18:35;0.63;;;0.63;;
19575;SDS011;41589;51.196;7.074;2023-07-28T15:23:36;0.50;;;0.50;;
19575;SDS011;41589;51.196;7.074;2023-07-28T15:28:36;0.40;;;0.40;;
19575;SDS011;41589;51.196;7.074;2023-07-28T15:33:36;0.53;;;0.53;;
19575;SDS011;41589;51.196;7.074;2023-07-28T15:38:37;0.63;;;0.63;;
19575;SDS011;41589;51.196;7.074;2023-07-28T15:43:37;0.70;;;0.60;;
19575;SDS011;41589;51.196;7.074;2023-07-28T15:48:37;1.00;;;0.60;;
19575;SDS011;41589;51.196;7.074;2023-07-28T15:53:38;0.53;;;0.53;;
19575;SDS011;41589;51.196;7.074;2023-07-28T15:58:38;0.50;;;0.50;;
19575;SDS011;41589;51.196;7.074;2023-07-28T16:03:38;0.60;;;0.60;;
19575;SDS011;41589;51.196;7.074;2023-07-28T16:08:39;0.60;;;0.60;;
19575;SDS011;41589;51.196;7.074;2023-07-28T16:13:39;1.00;;;1.00;;
19575;SDS011;41589;51.196;7.074;2023-07-28T16:18:39;0.70;;;0.70;;
19575;SDS011;41589;51.196;7.074;2023-07-28T16:23:40;0.70;;;0.50;;
19575;SDS011;41589;51.196;7.074;2023-07-28T16:28:40;0.60;;;0.60;;
19575;SDS011;41589;51.196;7.074;2023-07-28T16:33:40;0.53;;;0.53;;
19575;SDS011;41589;51.196;7.074;2023-07-28T16:38:41;0.60;;;0.60;;
19575;SDS011;41589;51.196;7.074;2023-07-28T16:43:41;0.47;;;0.47;;
19575;SDS011;41589;51.196;7.074;2023-07-28T16:48:42;0.50;;;0.50;;
19575;SDS011;41589;51.196;7.074;2023-07-28T16:53:42;0.50;;;0.50;;
19575;SDS011;41589;51.196;7.074;2023-07-28T16:58:42;0.60;;;0.60;;
19575;SDS011;41589;51.196;7.074;2023-07-28T17:03:43;0.50;;;0.50;;
19575;SDS011;41589;51.196;7.074;2023-07-28T17:08:43;0.57;;;0.57;;
19575;SDS011;41589;51.196;7.074;2023-07-28T17:13:43;0.60;;;0.60;;
19575;SDS011;41589;51.196;7.074;2023-07-28T17:18:44;0.50;;;0.50;;
19575;SDS011;41589;51.196;7.074;2023-07-28T17:23:44;0.50;;;0.50;;
19575;SDS011;41589;51.196;7.074;2023-07-28T17:28:45;0.60;;;0.60;;
19575;SDS011;41589;51.196;7.074;2023-07-28T17:33:45;0.60;;;0.60;;
19575;SDS011;41589;51.196;7.074;2023-07-28T17:38:45;0.70;;;0.70;;
19575;SDS011;41589;51.196;7.074;2023-07-28T17:43:46;0.70;;;0.70;;
19575;SDS011;41589;51.196;7.074;2023-07-28T17:48:46;0.73;;;0.73;;
19575;SDS011;41589;51.196;7.074;2023-07-28T17:53:47;0.50;;;0.50;;
19575;SDS011;41589;51.196;7.074;2023-07-28T17:58:47;0.70;;;0.70;;
19575;SDS011;41589;51.196;7.074;2023-07-28T18:03:47;0.60;;;0.60;;
19575;SDS011;41589;51.196;7.074;2023-07-28T18:08:51;0.60;;;0.60;;
19575;SDS011;41589;51.196;7.074;2023-07-28T18:13:51;0.60;;;0.60;;
19575;SDS011;41589;51.196;7.074;2023-07-28T18:18:52;0.60;;;0.60;;
19575;SDS011;41589;51.196;7.074;2023-07-28T18:23:52;0.80;;;0.80;;
19575;SDS011;41589;51.196;7.074;2023-07-28T18:28:52;0.83;;;0.77;;
19575;SDS011;41589;51.196;7.074;2023-07-28T18:33:53;0.70;;;0.70;;
19575;SDS011;41589;51.196;7.074;2023-07-28T18:38:53;0.70;;;0.70;;
19575;SDS011;41589;51.196;7.074;2023-07-28T18:43:54;0.70;;;0.70;;
19575;SDS011;41589;51.196;7.074;2023-07-28T18:48:54;0.80;;;0.80;;
19575;SDS011;41589;51.196;7.074;2023-07-28T18:53:55;0.80;;;0.80;;
19575;SDS011;41589;51.196;7.074;2023-07-28T18:58:55;0.83;;;0.83;;
19575;SDS011;41589;51.196;7.074;2023-07-28T19:03:56;0.93;;;0.90;;
19575;SDS011;41589;51.196;7.074;2023-07-28T19:08:56;1.00;;;0.90;;
19575;SDS011;41589;51.196;7.074;2023-07-28T19:13:57;0.80;;;0.80;;
19575;SDS011;41589;51.196;7.074;2023-07-28T19:18:57;1.00;;;1.00;;
19575;SDS011;41589;51.196;7.074;2023-07-28T19:23:58;0.90;;;0.90;;
19575;SDS011;41589;51.196;7.074;2023-07-28T19:28:59;1.40;;;1.30;;
19575;SDS011;41589;51.196;7.074;2023-07-28T19:33:59;1.20;;;1.20;;
19575;SDS011;41589;51.196;7.074;2023-07-28T19:39:00;1.30;;;1.17;;
19575;SDS011;41589;51.196;7.074;2023-07-28T19:44:00;1.20;;;1.20;;
19575;SDS011;41589;51.196;7.074;2023-07-28T19:49:01;1.30;;;1.30;;
19575;SDS011;41589;51.196;7.074;2023-07-28T19:54:01;1.63;;;1.53;;
19575;SDS011;41589;51.196;7.074;2023-07-28T19:59:01;1.43;;;1.40;;
19575;SDS011;41589;51.196;7.074;2023-07-28T20:04:03;1.30;;;1.30;;
19575;SDS011;41589;51.196;7.074;2023-07-28T20:09:03;1.20;;;1.20;;
19575;SDS011;41589;51.196;7.074;2023-07-28T20:14:04;1.20;;;1.20;;
19575;SDS011;41589;51.196;7.074;2023-07-28T20:19:04;1.40;;;1.30;;
19575;SDS011;41589;51.196;7.074;2023-07-28T20:24:05;1.07;;;1.07;;
19575;SDS011;41589;51.196;7.074;2023-07-28T20:29:05;1.20;;;1.20;;
19575;SDS011;41589;51.196;7.074;2023-07-28T20:34:06;1.53;;;1.43;;
19575;SDS011;41589;51.196;7.074;2023-07-28T20:39:07;1.10;;;1.10;;
19575;SDS011;41589;51.196;7.074;2023-07-28T20:44:07;1.10;;;1.10;;
19575;SDS011;41589;51.196;7.074;2023-07-28T20:49:08;1.10;;;1.10;;
19575;SDS011;41589;51.196;7.074;2023-07-28T20:54:09;1.10;;;1.10;;
19575;SDS011;41589;51.196;7.074;2023-07-28T20:59:09;0.97;;;0.97;;
19575;SDS011;41589;51.196;7.074;2023-07-28T21:04:09;1.30;;;1.20;;
19575;SDS011;41589;51.196;7.074;2023-07-28T21:09:10;1.40;;;1.30;;
19575;SDS011;41589;51.196;7.074;2023-07-28T21:14:10;1.00;;;1.00;;
19575;SDS011;41589;51.196;7.074;2023-07-28T21:19:11;1.07;;;1.07;;
19575;SDS011;41589;51.196;7.074;2023-07-28T21:24:11;0.80;;;0.80;;
19575;SDS011;41589;51.196;7.074;2023-07-28T21:29:11;0.93;;;0.93;;
19575;SDS011;41589;51.196;7.074;2023-07-28T21:34:12;0.80;;;0.80;;
19575;SDS011;41589;51.196;7.074;2023-07-28T21:39:17;0.90;;;0.90;;
19575;SDS011;41589;51.196;7.074;2023-07-28T21:44:18;0.90;;;0.90;;
19575;SDS011;41589;51.196;7.074;2023-07-28T21:49:18;1.00;;;1.00;;
19575;SDS011;41589;51.196;7.074;2023-07-28T21:54:20;0.90;;;0.90;;
19575;SDS011;41589;51.196;7.074;2023-07-28T21:59:20;0.90;;;0.90;;
19575;SDS011;41589;51.196;7.074;2023-07-28T22:04:23;1.10;;;1.00;;
19575;SDS011;41589;51.196;7.074;2023-07-28T22:09:24;1.33;;;0.93;;
19575;SDS011;41589;51.196;7.074;2023-07-28T22:14:24;1.00;;;0.90;;
19575;SDS011;41589;51.196;7.074;2023-07-28T22:19:25;0.80;;;0.80;;
19575;SDS011;41589;51.196;7.074;2023-07-28T22:24:25;0.80;;;0.80;;
19575;SDS011;41589;51.196;7.074;2023-07-28T22:29:25;0.90;;;0.90;;
19575;SDS011;41589;51.196;7.074;2023-07-28T22:34:26;0.73;;;0.73;;
19575;SDS011;41589;51.196;7.074;2023-07-28T22:39:26;0.90;;;0.90;;
19575;SDS011;41589;51.196;7.074;2023-07-28T22:44:28;0.90;;;0.90;;
19575;SDS011;41589;51.196;7.074;2023-07-28T22:49:28;1.00;;;1.00;;
19575;SDS011;41589;51.196;7.074;2023-07-28T22:54:28;1.10;;;1.10;;
19575;SDS011;41589;51.196;7.074;2023-07-28T22:59:29;1.53;;;1.53;;
19575;SDS011;41589;51.196;7.074;2023-07-28T23:04:29;1.50;;;1.40;;
19575;SDS011;41589;51.196;7.074;2023-07-28T23:09:30;1.30;;;1.30;;
19575;SDS011;41589;51.196;7.074;2023-07-28T23:14:30;1.30;;;1.30;;
19575;SDS011;41589;51.196;7.074;2023-07-28T23:19:31;1.60;;;1.50;;
19575;SDS011;41589;51.196;7.074;2023-07-28T23:24:31;1.40;;;1.40;;
19575;SDS011;41589;51.196;7.074;2023-07-28T23:29:34;1.43;;;1.40;;
19575;SDS011;41589;51.196;7.074;2023-07-28T23:34:35;1.50;;;1.40;;
19575;SDS011;41589;51.196;7.074;2023-07-28T23:39:37;1.00;;;1.00;;
19575;SDS011;41589;51.196;7.074;2023-07-28T23:44:38;0.80;;;0.80;;
19575;SDS011;41589;51.196;7.074;2023-07-28T23:49:38;0.90;;;0.90;;
19575;SDS011;41589;51.196;7.074;2023-07-28T23:54:39;0.77;;;0.77;;
19575;SDS011;41589;51.196;7.074;2023-07-28T23:59:40;0.90;;;0.90;;
